createdAt,value
2022-10-24T00:01:41.010Z,13.05
2022-10-24T00:04:09.287Z,13.03
2022-10-24T00:06:37.268Z,13.04
2022-10-24T00:09:05.554Z,13.02
2022-10-24T00:11:33.516Z,13.01
2022-10-24T00:14:02.356Z,13.06
2022-10-24T00:16:32.557Z,13.04
2022-10-24T00:19:01.555Z,12.99
2022-10-24T00:21:31.017Z,12.98
2022-10-24T00:23:58.981Z,12.95
2022-10-24T00:26:26.949Z,12.94
2022-10-24T00:28:54.979Z,12.93
2022-10-24T00:31:23.065Z,12.93
2022-10-24T00:33:52.495Z,12.94
2022-10-24T00:36:23.900Z,12.95
2022-10-24T00:38:52.925Z,12.98
2022-10-24T00:41:24.177Z,12.92
2022-10-24T00:43:52.259Z,12.90
2022-10-24T00:46:21.495Z,12.85
2022-10-24T00:48:53.827Z,12.84
2022-10-24T00:51:25.525Z,12.83
2022-10-24T00:56:33.202Z,12.77
2022-10-24T00:59:05.038Z,12.74
2022-10-24T01:01:34.063Z,12.69
2022-10-24T01:04:03.733Z,12.64
2022-10-24T01:06:43.200Z,12.62
2022-10-24T01:09:23.816Z,12.60
2022-10-24T01:12:05.033Z,12.62
2022-10-24T01:14:47.040Z,12.60
2022-10-24T01:17:20.360Z,12.58
2022-10-24T01:20:23.862Z,12.56
2022-10-24T01:23:23.890Z,12.53
2022-10-24T01:26:01.945Z,12.48
2022-10-24T01:28:36.300Z,12.41
2022-10-24T01:31:11.066Z,12.40
2022-10-24T01:33:44.369Z,12.38
2022-10-24T01:36:16.584Z,12.40
2022-10-24T01:38:48.757Z,12.40
2022-10-24T01:41:21.133Z,12.36
2022-10-24T01:46:30.669Z,12.35
2022-10-24T01:49:02.878Z,12.35
2022-10-24T01:51:33.157Z,12.29
2022-10-24T01:54:04.171Z,12.27
2022-10-24T01:56:33.050Z,12.09
2022-10-24T01:59:08.772Z,12.21
2022-10-24T02:01:39.735Z,12.18
2022-10-24T02:04:12.088Z,12.14
2022-10-24T02:06:42.788Z,12.10
2022-10-24T02:09:15.413Z,12.06
2022-10-24T02:11:46.186Z,12.06
2022-10-24T02:14:19.087Z,11.96
2022-10-24T02:16:48.769Z,11.98
2022-10-24T02:19:17.444Z,11.96
2022-10-24T02:21:52.923Z,11.98
2022-10-24T02:24:24.969Z,11.97
2022-10-24T02:26:58.818Z,11.93
2022-10-24T02:29:31.059Z,11.92
2022-10-24T02:32:01.241Z,11.91
2022-10-24T02:34:34.411Z,11.77
2022-10-24T02:37:04.035Z,11.89
2022-10-24T02:39:35.061Z,11.84
2022-10-24T02:42:06.472Z,11.81
2022-10-24T02:44:36.113Z,11.74
2022-10-24T02:47:09.284Z,11.70
2022-10-24T02:49:37.268Z,11.66
2022-10-24T02:52:05.731Z,11.64
2022-10-24T02:54:33.778Z,11.67
2022-10-24T02:57:03.795Z,11.62
2022-10-24T02:59:31.969Z,11.59
2022-10-24T03:02:00.104Z,11.54
2022-10-24T03:04:29.459Z,11.50
2022-10-24T03:06:57.470Z,11.50
2022-10-24T03:09:25.454Z,11.47
2022-10-24T03:11:53.417Z,11.45
2022-10-24T03:14:21.396Z,11.43
2022-10-24T03:16:49.379Z,11.48
2022-10-24T03:19:17.332Z,11.46
2022-10-24T03:21:46.835Z,11.52
2022-10-24T03:24:19.489Z,11.53
2022-10-24T03:26:54.943Z,11.57
2022-10-24T03:29:22.917Z,11.58
2022-10-24T03:31:50.896Z,11.54
2022-10-24T03:34:18.879Z,11.47
2022-10-24T03:36:48.256Z,11.47
2022-10-24T03:39:16.219Z,11.44
2022-10-24T03:41:44.192Z,11.51
2022-10-24T03:44:12.141Z,11.50
2022-10-24T03:46:40.113Z,11.50
2022-10-24T03:49:08.138Z,11.49
2022-10-24T03:51:36.173Z,11.52
2022-10-24T03:54:05.597Z,11.50
2022-10-24T03:56:33.573Z,11.49
2022-10-24T03:59:01.523Z,11.45
2022-10-24T04:01:29.631Z,11.41
2022-10-24T04:03:57.664Z,11.45
2022-10-24T04:06:25.617Z,11.43
2022-10-24T04:08:53.589Z,11.42
2022-10-24T04:11:22.892Z,11.40
2022-10-24T04:13:52.261Z,11.36
2022-10-24T04:16:20.682Z,11.33
2022-10-24T04:18:48.633Z,11.34
2022-10-24T04:21:20.805Z,11.32
2022-10-24T04:23:50.352Z,11.31
2022-10-24T04:26:18.975Z,11.31
2022-10-24T04:28:48.289Z,11.30
2022-10-24T04:31:19.610Z,11.30
2022-10-24T04:33:50.666Z,11.28
2022-10-24T04:36:18.708Z,11.26
2022-10-24T04:38:46.784Z,11.22
2022-10-24T04:41:14.909Z,11.20
2022-10-24T04:43:42.888Z,11.18
2022-10-24T04:46:12.456Z,11.16
2022-10-24T04:48:40.479Z,11.19
2022-10-24T04:51:08.533Z,11.20
2022-10-24T04:53:36.501Z,11.22
2022-10-24T04:56:04.928Z,11.22
2022-10-24T04:58:32.902Z,11.22
2022-10-24T05:01:00.982Z,11.19
2022-10-24T05:03:30.434Z,11.22
2022-10-24T05:05:58.394Z,11.19
2022-10-24T05:08:26.365Z,11.25
2022-10-24T05:10:54.384Z,11.24
2022-10-24T05:13:22.419Z,11.26
2022-10-24T05:15:50.481Z,11.23
2022-10-24T05:18:18.457Z,11.28
2022-10-24T05:20:47.777Z,11.26
2022-10-24T05:23:15.761Z,11.24
2022-10-24T05:25:43.769Z,11.30
2022-10-24T05:28:11.717Z,11.32
2022-10-24T05:30:39.736Z,11.34
2022-10-24T05:33:07.654Z,11.31
2022-10-24T05:35:35.662Z,11.28
2022-10-24T05:38:05.259Z,11.26
2022-10-24T05:40:33.184Z,11.25
2022-10-24T05:43:01.160Z,11.22
2022-10-24T05:45:29.082Z,11.20
2022-10-24T05:47:57.141Z,11.20
2022-10-24T05:50:26.892Z,11.18
2022-10-24T05:52:54.878Z,11.15
2022-10-24T05:55:24.230Z,11.14
2022-10-24T05:57:52.213Z,11.13
2022-10-24T06:00:20.794Z,11.13
2022-10-24T06:02:48.771Z,11.12
2022-10-24T06:05:17.053Z,11.14
2022-10-24T06:07:45.803Z,11.12
2022-10-24T06:10:14.708Z,11.12
2022-10-24T06:12:44.371Z,11.16
2022-10-24T06:15:14.533Z,11.17
2022-10-24T06:17:42.521Z,11.17
2022-10-24T06:20:11.502Z,11.16
2022-10-24T06:22:39.981Z,11.15
2022-10-24T06:25:08.499Z,11.16
2022-10-24T06:27:36.575Z,11.16
2022-10-24T06:30:07.621Z,11.21
2022-10-24T06:32:35.900Z,11.20
2022-10-24T06:35:04.642Z,11.19
2022-10-24T06:37:33.585Z,11.20
2022-10-24T06:40:01.533Z,11.22
2022-10-24T06:42:30.271Z,11.35
2022-10-24T06:47:32.720Z,11.46
2022-10-24T06:50:00.712Z,11.49
2022-10-24T06:52:28.710Z,11.56
2022-10-24T06:54:56.923Z,11.57
2022-10-24T06:57:24.901Z,11.58
2022-10-24T06:59:53.336Z,11.60
2022-10-24T07:02:21.750Z,11.67
2022-10-24T07:04:51.157Z,11.72
2022-10-24T07:07:21.369Z,11.77
2022-10-24T07:09:53.865Z,11.84
2022-10-24T07:12:21.822Z,11.85
2022-10-24T07:14:49.791Z,11.85
2022-10-24T07:17:19.149Z,11.85
2022-10-24T07:19:47.304Z,11.90
2022-10-24T07:22:16.636Z,11.90
2022-10-24T07:24:46.119Z,12.00
2022-10-24T07:27:14.066Z,12.06
2022-10-24T07:29:42.023Z,12.15
2022-10-24T07:32:09.967Z,12.17
2022-10-24T07:34:37.954Z,12.19
2022-10-24T07:37:06.014Z,12.26
2022-10-24T07:39:35.375Z,12.34
2022-10-24T07:42:03.340Z,12.39
2022-10-24T07:44:31.321Z,12.47
2022-10-24T07:46:59.497Z,12.43
2022-10-24T07:49:30.196Z,12.53
2022-10-24T07:52:01.577Z,12.54
2022-10-24T07:54:31.790Z,12.58
2022-10-24T07:57:04.081Z,12.59
2022-10-24T07:59:41.745Z,12.68
2022-10-24T08:02:12.044Z,12.69
2022-10-24T08:04:40.360Z,12.70
2022-10-24T08:07:13.424Z,12.75
2022-10-24T08:09:44.132Z,12.83
2022-10-24T08:12:13.694Z,12.89
2022-10-24T08:14:42.770Z,12.95
2022-10-24T08:17:11.188Z,12.97
2022-10-24T08:19:43.789Z,13.00
2022-10-24T08:22:13.075Z,13.08
2022-10-24T08:24:41.166Z,13.18
2022-10-24T08:27:09.294Z,13.29
2022-10-24T08:29:38.677Z,13.34
2022-10-24T08:32:07.288Z,13.37
2022-10-24T08:34:35.667Z,13.43
2022-10-24T08:37:04.820Z,13.46
2022-10-24T08:39:32.831Z,13.58
2022-10-24T08:42:05.156Z,13.61
2022-10-24T08:44:36.631Z,13.66
2022-10-24T08:47:14.571Z,13.70
2022-10-24T08:49:50.272Z,13.79
2022-10-24T08:52:27.469Z,13.83
2022-10-24T08:55:01.063Z,13.92
2022-10-24T09:00:19.109Z,13.95
2022-10-24T09:02:53.841Z,14.12
2022-10-24T09:05:25.805Z,14.21
2022-10-24T09:08:01.646Z,14.22
2022-10-24T09:10:39.289Z,14.33
2022-10-24T09:13:14.171Z,14.36
2022-10-24T09:15:43.728Z,14.43
2022-10-24T09:18:19.551Z,14.45
2022-10-24T09:20:49.031Z,14.56
2022-10-24T09:23:18.609Z,14.61
2022-10-24T09:25:50.480Z,14.57
2022-10-24T09:28:19.668Z,14.65
2022-10-24T09:30:47.748Z,14.75
2022-10-24T09:33:27.548Z,14.83
2022-10-24T09:35:57.561Z,14.86
2022-10-24T09:38:31.133Z,14.97
2022-10-24T09:41:02.677Z,14.99
2022-10-24T09:43:36.327Z,15.07
2022-10-24T09:46:08.297Z,15.08
2022-10-24T09:48:47.212Z,15.08
2022-10-24T09:51:33.473Z,15.21
2022-10-24T09:54:08.839Z,15.37
2022-10-24T09:56:39.249Z,15.53
2022-10-24T09:59:38.641Z,15.64
2022-10-24T10:02:26.309Z,15.70
2022-10-24T10:05:19.473Z,15.72
2022-10-24T10:07:49.932Z,15.79
2022-10-24T10:10:28.818Z,15.85
2022-10-24T10:13:01.141Z,15.85
2022-10-24T10:15:32.848Z,15.93
2022-10-24T10:18:04.976Z,16.01
2022-10-24T10:20:39.174Z,16.03
2022-10-24T10:23:19.104Z,16.00
2022-10-24T10:25:47.168Z,16.06
2022-10-24T10:28:23.628Z,16.17
2022-10-24T10:30:56.194Z,16.22
2022-10-24T10:33:29.635Z,16.29
2022-10-24T10:36:05.909Z,16.27
2022-10-24T10:38:44.186Z,16.34
2022-10-24T10:41:22.422Z,16.38
2022-10-24T10:44:03.871Z,16.57
2022-10-24T10:46:42.433Z,16.66
2022-10-24T10:49:17.584Z,16.71
2022-10-24T10:51:52.123Z,16.70
2022-10-24T10:54:33.762Z,16.68
2022-10-24T10:57:06.136Z,16.78
2022-10-24T10:59:43.408Z,16.83
2022-10-24T11:02:33.957Z,16.89
2022-10-24T11:05:17.990Z,16.82
2022-10-24T11:07:52.248Z,16.81
2022-10-24T11:10:23.917Z,16.75
2022-10-24T11:12:53.624Z,16.69
2022-10-24T11:15:25.427Z,16.63
2022-10-24T11:17:56.943Z,16.62
2022-10-24T11:20:29.556Z,16.61
2022-10-24T11:23:06.390Z,16.59
2022-10-24T11:25:38.441Z,16.67
2022-10-24T11:28:13.852Z,16.66
2022-10-24T11:30:48.597Z,16.74
2022-10-24T11:33:22.026Z,16.75
2022-10-24T11:36:18.909Z,16.76
2022-10-24T11:38:55.909Z,16.80
2022-10-24T11:41:47.495Z,16.89
2022-10-24T11:44:35.486Z,17.01
2022-10-24T11:47:15.668Z,17.11
2022-10-24T11:49:48.975Z,17.14
2022-10-24T11:52:23.202Z,17.06
2022-10-24T11:54:56.876Z,17.02
2022-10-24T11:57:28.487Z,17.02
2022-10-24T11:59:57.135Z,16.96
2022-10-24T12:03:04.811Z,16.84
2022-10-24T12:05:47.612Z,16.92
2022-10-24T12:08:36.385Z,16.96
2022-10-24T12:11:26.965Z,17.07
2022-10-24T12:14:19.122Z,17.17
2022-10-24T12:17:08.279Z,17.26
2022-10-24T12:19:40.674Z,17.25
2022-10-24T12:22:16.463Z,17.18
2022-10-24T12:24:45.169Z,17.15
2022-10-24T12:27:31.322Z,17.09
2022-10-24T12:30:08.390Z,17.07
2022-10-24T12:32:41.011Z,17.10
2022-10-24T12:35:57.531Z,17.04
2022-10-24T12:39:08.077Z,16.94
2022-10-24T12:41:43.415Z,16.81
2022-10-24T12:44:39.974Z,16.81
2022-10-24T12:47:42.112Z,16.81
2022-10-24T12:51:02.259Z,16.81
2022-10-24T12:53:39.170Z,16.86
2022-10-24T12:59:00.981Z,16.77
2022-10-24T13:01:34.489Z,16.75
2022-10-24T13:04:39.297Z,16.69
2022-10-24T13:07:47.242Z,16.67
2022-10-24T13:10:34.362Z,16.66
2022-10-24T13:13:30.711Z,16.62
2022-10-24T13:16:07.926Z,16.58
2022-10-24T13:18:53.418Z,16.58
2022-10-24T13:21:29.039Z,16.74
2022-10-24T13:24:12.641Z,16.99
2022-10-24T13:26:43.628Z,17.11
2022-10-24T13:29:17.125Z,17.18
2022-10-24T13:31:52.820Z,17.07
2022-10-24T13:34:42.746Z,17.11
2022-10-24T13:37:17.390Z,16.97
2022-10-24T13:39:53.000Z,16.85
2022-10-24T13:42:36.333Z,16.70
2022-10-24T13:45:21.540Z,16.61
2022-10-24T13:47:52.653Z,16.52
2022-10-24T13:50:27.681Z,16.42
2022-10-24T13:53:00.244Z,16.36
2022-10-24T13:55:33.017Z,16.12
2022-10-24T13:58:09.145Z,15.70
2022-10-24T14:00:40.241Z,15.37
2022-10-24T14:03:16.763Z,15.07
2022-10-24T14:05:49.953Z,14.81
2022-10-24T14:08:23.689Z,14.63
2022-10-24T14:10:53.236Z,14.51
2022-10-24T14:13:22.563Z,14.42
2022-10-24T14:15:53.154Z,14.37
2022-10-24T14:18:22.915Z,14.31
2022-10-24T14:20:57.189Z,14.22
2022-10-24T14:23:28.029Z,14.06
2022-10-24T14:25:59.285Z,13.98
2022-10-24T14:28:34.256Z,13.97
2022-10-24T14:31:04.821Z,14.02
2022-10-24T14:33:34.553Z,14.08
2022-10-24T14:36:05.215Z,14.13
2022-10-24T14:38:34.977Z,14.17
2022-10-24T14:41:09.336Z,14.23
2022-10-24T14:43:41.845Z,14.31
2022-10-24T14:46:27.939Z,14.43
2022-10-24T14:48:56.189Z,14.56
2022-10-24T14:51:31.858Z,14.74
2022-10-24T14:54:04.596Z,14.97
2022-10-24T14:56:34.781Z,15.18
2022-10-24T14:59:06.444Z,15.31
2022-10-24T15:01:34.500Z,15.37
2022-10-24T15:04:03.800Z,15.36
2022-10-24T15:06:40.281Z,15.39
2022-10-24T15:09:17.815Z,15.34
2022-10-24T15:11:47.870Z,15.32
2022-10-24T15:14:47.660Z,15.35
2022-10-24T15:17:32.385Z,15.30
2022-10-24T15:20:03.423Z,15.24
2022-10-24T15:22:35.147Z,15.18
2022-10-24T15:25:06.271Z,15.17
2022-10-24T15:27:41.026Z,15.16
2022-10-24T15:30:15.161Z,15.18
2022-10-24T15:32:43.640Z,15.17
2022-10-24T15:35:11.925Z,15.13
2022-10-24T15:37:41.632Z,15.10
2022-10-24T15:40:16.554Z,15.07
2022-10-24T15:42:44.886Z,15.05
2022-10-24T15:45:14.840Z,15.00
2022-10-24T15:47:44.749Z,14.92
2022-10-24T15:50:15.622Z,14.90
2022-10-24T15:52:52.684Z,14.83
2022-10-24T15:55:22.814Z,14.84
2022-10-24T15:57:51.744Z,14.81
2022-10-24T16:00:22.059Z,14.75
2022-10-24T16:02:52.287Z,14.77
2022-10-24T16:05:23.037Z,14.72
2022-10-24T16:07:53.077Z,14.69
2022-10-24T16:10:23.697Z,14.69
2022-10-24T16:12:51.820Z,14.68
2022-10-24T16:15:22.919Z,14.63
2022-10-24T16:17:50.976Z,14.62
2022-10-24T16:20:19.126Z,14.55
2022-10-24T16:22:47.461Z,14.54
2022-10-24T16:25:20.308Z,14.51
2022-10-24T16:27:49.002Z,14.51
2022-10-24T16:30:19.799Z,14.48
2022-10-24T16:32:48.793Z,14.55
2022-10-24T16:35:19.319Z,14.50
2022-10-24T16:37:47.720Z,14.53
2022-10-24T16:40:17.235Z,14.55
2022-10-24T16:42:45.870Z,14.53
2022-10-24T16:45:14.043Z,14.58
2022-10-24T16:47:42.796Z,14.50
2022-10-24T16:50:13.268Z,14.42
2022-10-24T16:52:41.287Z,14.29
2022-10-24T16:55:11.670Z,14.15
2022-10-24T16:57:43.030Z,14.05
2022-10-24T17:00:15.105Z,13.95
2022-10-24T17:02:44.266Z,13.90
2022-10-24T17:05:12.972Z,13.85
2022-10-24T17:07:41.675Z,13.86
2022-10-24T17:10:11.647Z,13.82
2022-10-24T17:12:42.778Z,13.83
2022-10-24T17:15:12.463Z,13.79
2022-10-24T17:17:40.933Z,13.78
2022-10-24T17:20:10.297Z,13.86
2022-10-24T17:22:39.138Z,13.88
2022-10-24T17:25:13.309Z,13.87
2022-10-24T17:27:43.026Z,13.85
2022-10-24T17:30:15.633Z,13.85
2022-10-24T17:32:44.158Z,13.86
2022-10-24T17:35:14.458Z,13.86
2022-10-24T17:37:57.894Z,13.84
2022-10-24T17:40:29.970Z,13.85
2022-10-24T17:43:00.010Z,13.83
2022-10-24T17:45:28.321Z,13.81
2022-10-24T17:47:56.570Z,13.78
2022-10-24T17:50:24.609Z,13.78
2022-10-24T17:52:52.675Z,13.83
2022-10-24T17:55:44.571Z,13.76
2022-10-24T17:58:12.696Z,13.76
2022-10-24T18:00:40.855Z,13.73
2022-10-24T18:03:09.462Z,13.72
2022-10-24T18:05:38.444Z,13.72
2022-10-24T18:08:08.383Z,13.65
2022-10-24T18:10:37.513Z,13.64
2022-10-24T18:13:05.491Z,13.61
2022-10-24T18:15:35.094Z,13.57
2022-10-24T18:18:03.127Z,13.51
2022-10-24T18:20:32.112Z,13.46
2022-10-24T18:23:00.480Z,13.42
2022-10-24T18:25:29.335Z,13.33
2022-10-24T18:27:57.523Z,13.30
2022-10-24T18:30:27.309Z,13.26
2022-10-24T18:32:56.751Z,13.19
2022-10-24T18:35:27.387Z,13.16
2022-10-24T18:37:55.432Z,13.14
2022-10-24T18:40:24.218Z,13.09
2022-10-24T18:42:56.387Z,13.07
2022-10-24T18:45:26.849Z,13.03
2022-10-24T18:47:56.914Z,12.99
2022-10-24T18:50:26.269Z,12.96
2022-10-24T18:53:00.140Z,12.93
2022-10-24T18:55:29.759Z,12.98
2022-10-24T18:57:58.238Z,13.04
2022-10-24T19:00:28.608Z,13.08
2022-10-24T19:03:12.064Z,13.02
2022-10-24T19:05:44.419Z,13.07
2022-10-24T19:08:18.226Z,13.07
2022-10-24T19:10:47.263Z,13.04
2022-10-24T19:13:16.394Z,13.05
2022-10-24T19:15:49.062Z,13.02
2022-10-24T19:18:18.501Z,12.97
2022-10-24T19:20:46.490Z,12.96
2022-10-24T19:23:17.233Z,12.97
2022-10-24T19:25:45.614Z,12.91
2022-10-24T19:28:18.043Z,12.89
2022-10-24T19:30:46.961Z,12.90
2022-10-24T19:33:16.403Z,12.88
2022-10-24T19:35:47.723Z,12.85
2022-10-24T19:38:16.022Z,12.84
2022-10-24T19:40:48.339Z,12.88
2022-10-24T19:43:16.346Z,12.87
2022-10-24T19:45:50.241Z,12.91
2022-10-24T19:48:23.812Z,12.91
2022-10-24T19:50:53.311Z,12.89
2022-10-24T19:53:21.377Z,12.88
2022-10-24T19:55:49.352Z,12.86
2022-10-24T19:58:20.060Z,12.89
2022-10-24T20:00:48.526Z,12.84
2022-10-24T20:03:17.025Z,12.82
2022-10-24T20:05:46.698Z,12.77
2022-10-24T20:08:16.277Z,12.76
2022-10-24T20:10:51.803Z,12.71
2022-10-24T20:13:19.982Z,12.67
2022-10-24T20:15:53.824Z,12.63
2022-10-24T20:18:22.300Z,12.56
2022-10-24T20:20:50.689Z,12.58
2022-10-24T20:23:22.062Z,12.54
2022-10-24T20:25:50.663Z,12.51
2022-10-24T20:28:18.639Z,12.50
2022-10-24T20:30:48.088Z,12.47
2022-10-24T20:33:16.629Z,12.44
2022-10-24T20:35:45.119Z,12.45
2022-10-24T20:38:13.158Z,12.48
2022-10-24T20:40:42.541Z,12.51
2022-10-24T20:43:10.502Z,12.46
2022-10-24T20:45:40.935Z,12.52
2022-10-24T20:48:09.433Z,12.51
2022-10-24T20:50:37.808Z,12.53
2022-10-24T20:53:05.754Z,12.53
2022-10-24T20:55:44.235Z,12.51
2022-10-24T20:58:14.398Z,12.48
2022-10-24T21:00:42.525Z,12.52
2022-10-24T21:03:12.200Z,12.54
2022-10-24T21:05:40.462Z,12.53
2022-10-24T21:08:08.497Z,12.50
2022-10-24T21:10:36.466Z,12.55
2022-10-24T21:13:04.504Z,12.54
2022-10-24T21:15:33.873Z,12.56
2022-10-24T21:18:01.924Z,12.57
2022-10-24T21:20:29.872Z,12.58
2022-10-24T21:22:57.917Z,12.59
2022-10-24T21:25:25.986Z,12.60
2022-10-24T21:27:53.916Z,12.57
2022-10-24T21:30:21.880Z,12.56
2022-10-24T21:32:51.172Z,12.59
2022-10-24T21:35:19.114Z,12.56
2022-10-24T21:37:47.399Z,12.57
2022-10-24T21:40:18.134Z,12.57
2022-10-24T21:42:46.543Z,12.54
2022-10-24T21:45:14.761Z,12.56
2022-10-24T21:47:42.805Z,12.53
2022-10-24T21:50:12.187Z,12.51
2022-10-24T21:52:40.136Z,12.47
2022-10-24T21:55:08.708Z,12.44
2022-10-24T21:57:36.636Z,12.41
2022-10-24T22:00:05.817Z,12.38
2022-10-24T22:02:33.920Z,12.42
2022-10-24T22:05:01.951Z,12.44
2022-10-24T22:07:31.239Z,12.49
2022-10-24T22:09:59.165Z,12.47
2022-10-24T22:12:27.098Z,12.50
2022-10-24T22:14:55.048Z,12.51
2022-10-24T22:17:23.010Z,12.57
2022-10-24T22:19:51.009Z,12.54
2022-10-24T22:22:18.949Z,12.55
2022-10-24T22:24:48.266Z,12.58
2022-10-24T22:27:16.263Z,12.57
2022-10-24T22:29:44.434Z,12.60
2022-10-24T22:32:15.594Z,12.58
2022-10-24T22:34:44.169Z,12.61
2022-10-24T22:37:23.826Z,12.64
2022-10-24T22:39:53.894Z,12.62
2022-10-24T22:42:22.341Z,12.59
2022-10-24T22:44:50.922Z,12.56
2022-10-24T22:47:31.807Z,12.51
2022-10-24T22:50:07.204Z,12.48
2022-10-24T22:52:35.737Z,12.43
2022-10-24T22:55:08.166Z,12.41
2022-10-24T22:57:38.995Z,12.34
2022-10-24T23:00:08.418Z,12.31
2022-10-24T23:02:45.404Z,12.24
2022-10-24T23:05:27.569Z,12.21
2022-10-24T23:08:02.223Z,12.13
2022-10-24T23:10:31.616Z,12.11
2022-10-24T23:13:00.221Z,12.05
2022-10-24T23:15:28.913Z,12.01
2022-10-24T23:17:57.369Z,12.01
2022-10-24T23:20:32.900Z,11.96
2022-10-24T23:23:16.065Z,11.91
2022-10-24T23:25:53.708Z,11.86
2022-10-24T23:28:29.088Z,11.81
2022-10-24T23:30:57.668Z,11.80
2022-10-24T23:33:29.277Z,11.78
2022-10-24T23:35:59.719Z,11.74
2022-10-24T23:38:28.754Z,11.71
2022-10-24T23:40:58.695Z,11.69
2022-10-24T23:43:27.242Z,11.64
2022-10-24T23:46:00.356Z,11.61
2022-10-24T23:48:43.741Z,11.54
2022-10-24T23:51:15.609Z,11.55
2022-10-24T23:53:54.309Z,11.52
2022-10-24T23:56:26.162Z,11.51
2022-10-24T23:58:54.610Z,11.43
